Meat Camp, North Carolina
Current Conditions -  °F | °C
As of 12:55 AM on Wednesday 22 Oct 2014 (Local Time) from KTNB Reporting Station
Clear Clear  
Wind Chill: 32°   Ceiling: Unl
Heat Index: 41°   Visibility: 10mi
Dew Point: 33°   Wind: 18mph
Humidity: 73%   Direction: 310°NW
Pressure: 30.02"   Gusts: 24mph
Location:  36.2085°N, 81.6605°W
Report Text: KTNB 220455Z AUTO 31016G21KT 10SM CLR 05/01 A3002 RMK AO2 T00510006
Loading
Personal Weather Stations






























Interactive Weather Map
Tropical Storm Tracking
New forecast layout! Learn more

10-Day Weather Forecast

Advertisements
Track Severe Weather on mobile